Mendota, IL

5:13 AM CDT on September 20, 2014 (GMT -0500)
Welland and Angling Road | Change Station
CLOSE
Current Station
Personal Weather Station
Location: Earlville, IL
Elevation: 833 ft
Nearby Weather Stations

Elev 833 ft 41.63 °N, 89.02 °W | Updated 3 seconds ago

Clear
Clear
55.8 °F
Feels Like 55.8 °F
N
0.0
Wind Variable Wind from NW
Gusts 2.2 mph

Today
High -- | Low -- °F
--% Chance of Precip.
Yesterday
High -- | Low -- °F
Precip. -- in
6:41 AM 6:57 PM
Waning Crescent, 13% visible
Pressure 29.93 in
Visibility 10.0 miles
Clouds Clear
Dew Point 56 °F
Humidity 99%
Rainfall 0.00 in
Snow Depth Not available.
UV 0 out of 12
Pollen 5.70 out of 12
Air Quality Not available.
Flu Activity Not available.
METAR KVYS 200955Z AUTO 19009KT 10SM CLR 16/13 A2993 RMK AO2 LTG DSNT NW T01550131

More Conditions Fewer Conditions

Pressure 29.93 in
Visibility 10.0 miles
Clouds Clear
Dew Point 56 °F
Humidity 99%
Rainfall 0.00 in
Snow Depth Not available.
UV 0 out of 12
Pollen 5.70 out of 12
Air Quality Not available.
Flu Activity Not available.
METAR KVYS 200955Z AUTO 19009KT 10SM CLR 16/13 A2993 RMK AO2 LTG DSNT NW T01550131

More Conditions Fewer Conditions

10-Day Weather Forecast

Almanac

Astronomy

Sep. 20, 2014 Rise Set
Actual Time 6:41 AM CDT 6:57 PM CDT
Civil Twilight 6:14 AM CDT 7:24 PM CDT
Nautical Twilight 5:41 AM CDT 7:57 PM CDT
Astronomical Twilight 5:08 AM CDT 8:30 PM CDT
Moon 3:18 AM CDT 5:02 PM CDT
Length of Visible Light 13h 10m
Length of Day
12h 15m
Tomorrow will be 2m 46s shorter.
Waning Crescent, 13% of the Moon is Illuminated
Today
Waning Crescent
Sep 24
New
Oct 1
First Quarter
Oct 8
Full
Oct 15
Last Quarter

Today's Extremes

State Highs State Lows

Community

WunderPhotos

Upload Photos

1,754,824 photos uploaded!

WunderBlogs® & News

Nearby

Snow Depth

Station Depth Elevation
No new snow has been reported.

Earthquake Activity

City Distance Mag. Time & Date
No recent earthquake activity has been reported nearby.
Minimum magnitude displayed is 2.5.

Coastal Water Temperatures

Place Temperature
No Stations Reporting

Nearby Weather Stations